CZFM

Fort McPherson Airport

Fort Mcpherson, Northwest Territories, Canada
METAR CZFM 200000Z 36011G17KT 1/2SM BLSN OVC026 M14/M17 A2990 RMK NS8 -7.2/-14.0/60.5/SNWCVR/MUCH LOOSE LAST OBS/NEXT 201400Z SLP131
Observed Flight Rules
Jan-20 @ 00:00 UTC (an hour ago) Instrument Flight Rules
Wind Visibility Clouds Conditions
360° at 11 knots
 Gusting to 17 knots
1/2 miles
  • Overcast at 2,600' AGL
  • Blowing
  • Snow
Temperatures Readings
Current -14°C / 7°F
Dewpoint -17°C / 1°F
Humidity 78%
Altimeter 29.9" Hg
Pressure 1013.1 hPa
Elevation 43
METAR CZFM 200000Z 36011G17KT 1/2SM BLSN OVC026 M14/M17 A2990 RMK NS8 -7.2/-14.0/60.5/SNWCVR/MUCH LOOSE LAST OBS/NEXT 201400Z SLP131
Observed Flight Rules
Jan-20 @ 00:00 UTC
(an hour ago)
LIFR
Wind Visibility
360° at 11 knots
 Gusting to 17 knots
1/2 miles
Clouds
  • Overcast at 2,600' AGL
Conditions
  • Blowing
  • Snow
Temperature Dewpoint
-14°C / 7°F -17°C / 1°F
Humidity Altimeter Pressure
78% 29.9" Hg 1013.1 hPa